Time;durP1;ratioP1;P1;durP2;ratioP2;P2;SDS_P1;SDS_P2;PMS_P1;PMS_P2;Temp;Humidity;BMP_temperature;BMP_pressure;BME280_temperature;BME280_humidity;BME280_pressure;Samples;Min_cycle;Max_cycle;Signal;HPM_P1;HPM_P2
2021/12/23 00:01:20;;;;;;;39.87;19.33;;;;;;;-2.00;100.00;100639.25;5033056;28;20207;-58
2021/12/23 00:03:49;;;;;;;39.93;19.40;;;;;;;-2.06;100.00;100640.72;5032939;28;20233;-56
2021/12/23 00:06:16;;;;;;;43.73;19.23;;;;;;;-2.02;100.00;100645.09;5033225;28;20193;-56
2021/12/23 00:08:43;;;;;;;38.97;18.90;;;;;;;-1.86;100.00;100643.22;5033422;28;20237;-58
2021/12/23 00:11:10;;;;;;;37.07;18.07;;;;;;;-1.78;100.00;100640.97;5033026;28;20654;-58
2021/12/23 00:13:37;;;;;;;35.13;17.27;;;;;;;-1.73;100.00;100638.59;5033425;28;20618;-55
2021/12/23 00:16:16;;;;;;;37.30;17.73;;;;;;;-1.93;100.00;100632.75;5032821;28;20292;-55
2021/12/23 00:18:48;;;;;;;34.47;17.20;;;;;;;-2.01;100.00;100634.13;5032927;28;20219;-56
2021/12/23 00:24:01;;;;;;;34.03;18.23;;;;;;;-1.95;100.00;100631.81;5032784;28;20596;-58
2021/12/23 00:26:30;;;;;;;36.57;18.90;;;;;;;-1.89;100.00;100640.56;5032945;28;20194;-57
2021/12/23 00:28:57;;;;;;;41.13;20.10;;;;;;;-1.89;100.00;100634.59;5032582;28;20201;-57
2021/12/23 00:31:24;;;;;;;38.70;18.40;;;;;;;-1.83;100.00;100634.84;5032860;28;20583;-59
2021/12/23 00:33:51;;;;;;;37.93;18.47;;;;;;;-1.83;100.00;100628.09;5032776;28;20288;-56
2021/12/23 00:36:19;;;;;;;38.13;18.80;;;;;;;-1.66;100.00;100633.81;5032103;28;20208;-59
2021/12/23 00:38:51;;;;;;;38.77;18.30;;;;;;;-1.89;100.00;100615.09;5032628;28;20231;-56
2021/12/23 00:41:19;;;;;;;40.33;19.13;;;;;;;-1.91;100.00;100623.47;5032492;28;20202;-55
2021/12/23 00:43:47;;;;;;;34.87;18.00;;;;;;;-1.77;100.00;100634.19;5032364;28;20294;-59
2021/12/23 00:46:14;;;;;;;42.00;19.37;;;;;;;-1.87;100.00;100638.06;5032391;28;20201;-57
2021/12/23 00:48:41;;;;;;;43.17;19.00;;;;;;;-1.86;100.00;100629.63;5032540;28;20619;-58
2021/12/23 00:51:09;;;;;;;39.70;19.47;;;;;;;-1.75;100.00;100630.91;5032118;28;20200;-59
2021/12/23 00:53:39;;;;;;;40.83;20.43;;;;;;;-1.64;100.00;100627.09;5032229;28;20220;-58
2021/12/23 00:56:09;;;;;;;39.33;21.47;;;;;;;-1.63;100.00;100630.50;5032134;28;20691;-57
2021/12/23 00:58:36;;;;;;;45.00;23.03;;;;;;;-1.65;100.00;100629.56;5032127;28;20225;-59
2021/12/23 01:01:04;;;;;;;44.13;22.10;;;;;;;-1.75;100.00;100628.38;5032326;28;20215;-56
2021/12/23 01:03:31;;;;;;;51.03;22.73;;;;;;;-1.75;100.00;100630.91;5031729;28;20233;-55
2021/12/23 01:05:59;;;;;;;52.43;24.07;;;;;;;-1.78;100.00;100630.78;5031937;28;20336;-55
2021/12/23 01:08:26;;;;;;;48.30;24.10;;;;;;;-1.74;100.00;100629.25;5031985;28;20205;-57
2021/12/23 01:10:58;;;;;;;55.30;23.73;;;;;;;-1.74;100.00;100625.00;5031863;28;20293;-58
2021/12/23 01:13:28;;;;;;;52.57;24.53;;;;;;;-1.81;100.00;100617.97;5031782;28;20651;-57
2021/12/23 01:16:04;;;;;;;56.17;25.37;;;;;;;-2.04;100.00;100613.66;5031923;28;20198;-57
2021/12/23 01:18:37;;;;;;;54.60;26.80;;;;;;;-2.15;100.00;100618.34;5031793;28;20668;-57
2021/12/23 01:21:16;;;;;;;55.23;26.30;;;;;;;-2.24;100.00;100590.84;5031977;28;20200;-57
2021/12/23 01:23:45;;;;;;;46.23;24.37;;;;;;;-2.11;100.00;100614.22;5031490;28;20225;-57
2021/12/23 01:26:17;;;;;;;59.03;25.80;;;;;;;-2.07;100.00;100614.41;5031630;28;20288;-56
2021/12/23 01:28:46;;;;;;;54.60;25.47;;;;;;;-1.95;100.00;100604.72;5031488;28;20205;-55
2021/12/23 01:31:13;;;;;;;52.10;25.20;;;;;;;-2.09;100.00;100610.06;5031977;28;20296;-54
2021/12/23 01:33:40;;;;;;;54.10;26.00;;;;;;;-2.09;100.00;100612.59;5031391;28;20586;-55
2021/12/23 01:36:07;;;;;;;53.20;24.13;;;;;;;-2.18;100.00;100602.94;5031599;28;20576;-54
2021/12/23 01:38:34;;;;;;;47.33;22.10;;;;;;;-2.29;100.00;100607.59;5031540;28;20205;-55
2021/12/23 01:41:01;;;;;;;55.90;26.70;;;;;;;-2.33;100.00;100615.91;5031312;28;20201;-58
2021/12/23 01:43:30;;;;;;;60.63;28.40;;;;;;;-2.32;100.00;100602.38;5031105;28;20220;-58
2021/12/23 01:45:57;;;;;;;59.90;28.73;;;;;;;-2.22;100.00;100607.03;5031136;28;20204;-55
2021/12/23 01:48:24;;;;;;;71.43;31.63;;;;;;;-2.34;100.00;100603.13;5030194;28;20229;-56
2021/12/23 01:50:51;;;;;;;81.47;33.30;;;;;;;-2.46;100.00;100598.41;5031224;28;20208;-56
2021/12/23 01:53:18;;;;;;;71.50;32.33;;;;;;;-2.48;100.00;100594.94;5031356;28;20189;-55
2021/12/23 01:55:47;;;;;;;76.83;33.83;;;;;;;-2.54;100.00;100604.88;5030934;28;20219;-55
2021/12/23 01:58:15;;;;;;;83.60;34.63;;;;;;;-2.61;100.00;100578.34;5031032;28;20280;-55
2021/12/23 02:00:45;;;;;;;74.33;34.67;;;;;;;-2.45;100.00;100595.06;5030938;28;20213;-54
2021/12/23 02:03:13;;;;;;;75.27;34.07;;;;;;;-2.39;100.00;100587.72;5030977;28;20811;-55
2021/12/23 02:05:41;;;;;;;80.17;34.30;;;;;;;-2.57;100.00;100581.88;5030889;28;20197;-55
2021/12/23 02:08:09;;;;;;;73.20;34.00;;;;;;;-2.71;100.00;100524.56;5030999;28;20747;-55
2021/12/23 02:10:36;;;;;;;71.23;33.53;;;;;;;-2.40;100.00;100592.72;5030784;28;20205;-55
2021/12/23 02:13:03;;;;;;;82.50;36.67;;;;;;;-2.66;100.00;100569.66;5031092;28;20610;-55
2021/12/23 02:15:31;;;;;;;78.23;33.57;;;;;;;-2.56;100.00;100591.22;5030555;28;20201;-57
2021/12/23 02:17:59;;;;;;;91.67;34.97;;;;;;;-2.73;100.00;100592.22;5030649;28;20284;-57
2021/12/23 02:20:31;;;;;;;78.27;33.03;;;;;;;-2.65;100.00;100588.31;5031255;28;20569;-57
2021/12/23 02:22:58;;;;;;;68.90;32.37;;;;;;;-2.68;100.00;100585.66;5030434;28;20221;-59
2021/12/23 02:25:26;;;;;;;71.00;32.20;;;;;;;-2.52;100.00;100589.69;5030703;28;20227;-57
2021/12/23 02:27:55;;;;;;;76.27;31.97;;;;;;;-2.60;100.00;100566.53;5030529;28;20207;-57
2021/12/23 02:30:25;;;;;;;73.07;32.53;;;;;;;-2.59;100.00;100586.88;5030451;28;20198;-58
2021/12/23 02:32:53;;;;;;;72.67;32.40;;;;;;;-2.73;100.00;100566.81;5030542;28;20194;-55
2021/12/23 02:35:23;;;;;;;71.97;30.90;;;;;;;-2.54;100.00;100594.72;5030422;28;20194;-55
2021/12/23 02:37:52;;;;;;;64.40;31.53;;;;;;;-2.64;100.00;100573.13;5030383;28;20712;-55
2021/12/23 02:40:29;;;;;;;70.03;31.50;;;;;;;-2.53;100.00;100591.38;5030287;28;20258;-55
2021/12/23 02:42:57;;;;;;;62.37;30.07;;;;;;;-2.50;100.00;100586.41;5030555;28;20225;-56
2021/12/23 02:45:24;;;;;;;59.37;27.10;;;;;;;-2.34;100.00;100593.81;5030320;28;20202;-56
2021/12/23 02:47:51;;;;;;;64.10;28.03;;;;;;;-2.46;100.00;100593.34;5030079;28;20204;-55
2021/12/23 02:50:18;;;;;;;58.87;27.03;;;;;;;-2.50;100.00;100590.63;5030251;28;20213;-57
2021/12/23 02:52:45;;;;;;;62.13;24.20;;;;;;;-2.52;100.00;100593.09;5030174;28;20203;-56
2021/12/23 02:55:13;;;;;;;53.23;23.57;;;;;;;-2.48;100.00;100583.94;5030313;28;20581;-58
2021/12/23 02:57:40;;;;;;;46.97;23.10;;;;;;;-2.50;100.00;100581.34;5029985;28;20289;-57
2021/12/23 03:00:11;;;;;;;49.47;23.13;;;;;;;-2.45;100.00;100579.81;5029716;28;20201;-58
2021/12/23 03:02:39;;;;;;;41.73;21.87;;;;;;;-2.70;100.00;100562.72;5029906;28;20237;-55
2021/12/23 03:05:07;;;;;;;43.50;20.87;;;;;;;-2.59;100.00;100578.38;5030069;28;20198;-58
2021/12/23 03:07:34;;;;;;;40.13;20.00;;;;;;;-2.51;99.90;100566.00;5030102;28;20201;-59
2021/12/23 03:10:02;;;;;;;42.50;20.93;;;;;;;-2.26;99.86;100592.44;5030051;28;20204;-58
2021/12/23 03:12:30;;;;;;;40.80;20.47;;;;;;;-2.27;98.25;100592.41;5030186;28;20258;-55
2021/12/23 03:14:57;;;;;;;40.77;20.47;;;;;;;-2.30;97.91;100593.16;5030191;28;20549;-56
2021/12/23 03:17:24;;;;;;;37.00;19.37;;;;;;;-2.41;97.92;100606.25;5029915;28;20575;-56
2021/12/23 03:19:51;;;;;;;32.60;18.60;;;;;;;-2.38;97.03;100598.75;5029886;28;20247;-55
2021/12/23 03:22:18;;;;;;;37.00;18.73;;;;;;;-2.55;97.25;100577.72;5029766;28;20718;-56
2021/12/23 03:24:45;;;;;;;43.70;20.50;;;;;;;-2.34;96.67;100604.00;5029814;28;20201;-56
2021/12/23 03:27:12;;;;;;;38.37;18.77;;;;;;;-2.44;96.61;100585.78;5029897;28;20224;-56
2021/12/23 03:29:41;;;;;;;35.97;19.37;;;;;;;-2.32;96.04;100610.03;5029817;28;20201;-57
2021/12/23 03:32:09;;;;;;;38.13;19.70;;;;;;;-2.15;95.43;100610.72;5029805;28;20647;-55
2021/12/23 03:34:36;;;;;;;41.90;20.27;;;;;;;-2.22;95.85;100622.28;5029626;28;20768;-56
2021/12/23 03:37:03;;;;;;;38.13;19.60;;;;;;;-2.34;98.12;100606.53;5030122;28;20300;-56
2021/12/23 03:39:30;;;;;;;42.63;22.07;;;;;;;-2.48;99.42;100607.66;5029787;28;20284;-55
2021/12/23 03:41:57;;;;;;;37.77;20.17;;;;;;;-2.44;100.00;100609.53;5029720;28;20296;-56
2021/12/23 03:44:24;;;;;;;40.57;21.27;;;;;;;-2.24;99.59;100615.41;5029617;28;20229;-55
2021/12/23 03:46:53;;;;;;;46.80;22.53;;;;;;;-2.47;99.24;100580.56;5029582;28;20204;-56
2021/12/23 03:49:20;;;;;;;38.90;20.80;;;;;;;-2.33;99.27;100613.38;5029620;28;20201;-55
2021/12/23 03:51:47;;;;;;;38.67;19.63;;;;;;;-2.45;100.00;100617.09;5029606;28;20215;-56
2021/12/23 03:54:14;;;;;;;43.63;20.60;;;;;;;-2.49;100.00;100612.69;5029726;28;20199;-58
2021/12/23 03:56:41;;;;;;;39.90;21.17;;;;;;;-2.46;100.00;100613.66;5029655;28;20197;-59
2021/12/23 03:59:08;;;;;;;44.37;21.93;;;;;;;-2.39;99.98;100620.75;5029470;28;20201;-58
2021/12/23 04:01:35;;;;;;;48.77;23.90;;;;;;;-2.48;100.00;100629.69;5029176;28;20207;-57
2021/12/23 04:04:04;;;;;;;47.30;23.93;;;;;;;-2.54;100.00;100630.28;5028645;28;20762;-57
2021/12/23 04:06:31;;;;;;;46.20;23.00;;;;;;;-2.56;100.00;100627.69;5028906;28;20558;-57
2021/12/23 04:08:58;;;;;;;47.70;23.17;;;;;;;-2.58;100.00;100630.97;5031175;28;20201;-55
2021/12/23 04:11:25;;;;;;;42.30;22.50;;;;;;;-2.65;100.00;100627.31;5035892;28;20197;-57
2021/12/23 04:13:53;;;;;;;43.83;21.13;;;;;;;-2.58;100.00;100644.53;5040759;28;20197;-54
2021/12/23 04:16:20;;;;;;;36.00;19.63;;;;;;;-2.63;100.00;100640.09;5037219;28;20197;-56
2021/12/23 04:18:50;;;;;;;36.73;19.80;;;;;;;-2.60;100.00;100636.00;5031795;28;20676;-55
2021/12/23 04:21:19;;;;;;;37.67;19.87;;;;;;;-2.61;100.00;100636.81;5033453;28;20204;-55
2021/12/23 04:23:46;;;;;;;38.03;20.10;;;;;;;-2.45;100.00;100635.75;5039823;28;20217;-55
2021/12/23 04:26:13;;;;;;;38.70;19.47;;;;;;;-2.47;100.00;100634.81;5040620;28;20279;-55
2021/12/23 04:28:46;;;;;;;40.53;20.17;;;;;;;-2.50;100.00;100619.47;5036752;28;20282;-55
2021/12/23 04:31:15;;;;;;;36.43;19.33;;;;;;;-2.54;100.00;100645.53;5034849;28;20288;-57
2021/12/23 04:33:44;;;;;;;39.70;20.07;;;;;;;-2.51;100.00;100644.81;5031301;28;20191;-55
2021/12/23 04:36:11;;;;;;;47.57;22.53;;;;;;;-2.63;100.00;100620.63;5034284;28;20197;-56
2021/12/23 04:38:41;;;;;;;57.77;25.97;;;;;;;-2.62;100.00;100616.41;5030566;28;20228;-55
2021/12/23 04:41:09;;;;;;;75.23;35.17;;;;;;;-2.42;100.00;100635.88;5039236;28;20193;-55
2021/12/23 04:43:36;;;;;;;77.13;36.73;;;;;;;-2.43;100.00;100635.81;5041496;28;20221;-59
2021/12/23 04:46:03;;;;;;;90.77;39.03;;;;;;;-2.34;100.00;100637.06;5040280;28;20332;-55
2021/12/23 04:48:31;;;;;;;75.03;36.70;;;;;;;-2.44;100.00;100626.44;5037946;28;20199;-55
2021/12/23 04:50:58;;;;;;;65.03;31.20;;;;;;;-2.44;100.00;100629.88;5040668;28;20203;-55
2021/12/23 04:53:25;;;;;;;64.13;31.03;;;;;;;-2.31;100.00;100633.78;5041870;28;20279;-57
2021/12/23 04:55:53;;;;;;;52.63;28.00;;;;;;;-2.40;100.00;100625.78;5039966;28;20231;-57
2021/12/23 04:58:20;;;;;;;57.17;27.17;;;;;;;-2.50;100.00;100627.09;5040019;28;20196;-56
2021/12/23 05:00:49;;;;;;;54.03;28.37;;;;;;;-2.48;100.00;100622.91;5041516;28;20279;-56
2021/12/23 05:03:17;;;;;;;59.17;27.53;;;;;;;-2.34;100.00;100628.56;5040660;28;20221;-55
2021/12/23 05:05:44;;;;;;;54.70;27.87;;;;;;;-2.23;100.00;100627.31;5037114;28;20190;-57
2021/12/23 05:08:12;;;;;;;52.40;26.77;;;;;;;-2.32;100.00;100621.88;5031827;28;20201;-57
2021/12/23 05:10:39;;;;;;;55.23;27.47;;;;;;;-2.37;100.00;100624.22;5020077;28;20214;-58
2021/12/23 05:13:08;;;;;;;53.90;27.87;;;;;;;-2.29;99.87;100622.88;5012135;28;20655;-58
2021/12/23 05:15:34;;;;;;;72.30;35.57;;;;;;;-2.33;100.00;100626.09;5011802;28;20643;-57
2021/12/23 05:18:02;;;;;;;70.30;34.97;;;;;;;-2.40;100.00;100624.09;5011614;28;20221;-57
2021/12/23 05:20:29;;;;;;;71.17;33.27;;;;;;;-2.57;100.00;100622.53;5011289;28;20254;-57
2021/12/23 05:22:57;;;;;;;68.83;31.37;;;;;;;-2.58;100.00;100628.41;5028766;28;20225;-57
2021/12/23 05:25:24;;;;;;;62.77;30.37;;;;;;;-2.71;100.00;100634.66;5029771;28;20274;-57
2021/12/23 05:27:54;;;;;;;61.20;30.90;;;;;;;-2.61;100.00;100644.44;5028826;28;20319;-57
2021/12/23 05:30:25;;;;;;;60.73;29.53;;;;;;;-2.52;100.00;100638.84;5029776;28;20221;-57
2021/12/23 05:32:53;;;;;;;65.47;30.67;;;;;;;-2.58;100.00;100633.50;5027585;28;20745;-57
2021/12/23 05:35:21;;;;;;;82.67;35.50;;;;;;;-2.67;100.00;100622.97;5029472;28;20322;-56
2021/12/23 05:37:48;;;;;;;92.47;38.87;;;;;;;-2.56;100.00;100624.28;5029419;28;20235;-57
2021/12/23 05:40:17;;;;;;;82.30;38.30;;;;;;;-2.64;100.00;100636.69;5029512;28;20225;-57
2021/12/23 05:42:45;;;;;;;85.03;39.10;;;;;;;-2.61;100.00;100633.41;5031198;28;20620;-57
2021/12/23 05:45:12;;;;;;;87.63;38.70;;;;;;;-2.50;100.00;100637.25;5030760;28;20246;-55
2021/12/23 05:47:41;;;;;;;89.33;38.60;;;;;;;-2.54;100.00;100630.28;5030851;28;20221;-56
2021/12/23 05:50:09;;;;;;;80.53;34.17;;;;;;;-2.56;100.00;100636.97;5030737;28;20681;-57
2021/12/23 05:52:36;;;;;;;77.30;36.17;;;;;;;-2.61;100.00;100635.94;5031232;28;20214;-57
2021/12/23 05:55:05;;;;;;;85.10;36.07;;;;;;;-2.67;100.00;100644.16;5030162;28;20697;-57
2021/12/23 05:57:31;;;;;;;79.83;32.73;;;;;;;-2.62;100.00;100644.38;5049943;28;20231;-55
2021/12/23 06:00:00;;;;;;;71.23;30.37;;;;;;;-2.68;100.00;100641.56;5050487;28;20391;-56
2021/12/23 06:02:27;;;;;;;47.40;23.10;;;;;;;-2.76;100.00;100651.41;5050325;28;20313;-59
2021/12/23 06:04:55;;;;;;;49.67;24.33;;;;;;;-2.73;100.00;100646.47;5050285;28;20245;-58
2021/12/23 06:07:22;;;;;;;50.93;25.17;;;;;;;-2.60;100.00;100650.38;5050450;28;20233;-58
2021/12/23 06:09:49;;;;;;;54.10;24.23;;;;;;;-2.53;100.00;100652.38;5049949;28;20692;-59
2021/12/23 06:12:16;;;;;;;49.03;22.97;;;;;;;-2.64;100.00;100636.69;5050623;28;20779;-57
2021/12/23 06:14:43;;;;;;;41.37;22.43;;;;;;;-2.50;100.00;100656.72;5050252;28;20311;-58
2021/12/23 06:17:10;;;;;;;55.67;24.63;;;;;;;-2.60;100.00;100658.88;5050244;28;20286;-57
2021/12/23 06:19:37;;;;;;;40.20;21.93;;;;;;;-2.58;100.00;100653.84;5050408;28;20217;-56
2021/12/23 06:22:06;;;;;;;39.57;23.40;;;;;;;-2.43;100.00;100663.78;5050364;28;20246;-57
2021/12/23 06:24:33;;;;;;;47.13;22.77;;;;;;;-2.40;100.00;100669.00;5029532;28;20717;-56
2021/12/23 06:26:59;;;;;;;37.73;20.73;;;;;;;-2.48;100.00;100671.19;5044560;28;20224;-59
2021/12/23 06:29:26;;;;;;;41.43;21.50;;;;;;;-2.44;100.00;100675.63;5050155;28;20224;-57
2021/12/23 06:31:53;;;;;;;46.70;22.23;;;;;;;-2.44;100.00;100678.16;5049743;28;20228;-56
2021/12/23 06:34:20;;;;;;;38.17;22.23;;;;;;;-2.50;99.73;100683.00;5049432;28;20230;-56
2021/12/23 06:36:47;;;;;;;49.87;26.37;;;;;;;-2.54;99.89;100678.59;5049775;28;20222;-58
2021/12/23 06:39:16;;;;;;;52.83;27.63;;;;;;;-2.45;99.69;100685.72;5030329;28;20221;-59
2021/12/23 06:41:43;;;;;;;51.63;27.97;;;;;;;-2.34;99.36;100689.56;5029745;28;20232;-59
2021/12/23 06:44:10;;;;;;;60.10;29.93;;;;;;;-2.43;99.03;100677.34;5029831;28;20228;-58
2021/12/23 06:46:37;;;;;;;62.03;29.47;;;;;;;-2.38;98.56;100693.69;5029879;28;20228;-59
2021/12/23 06:49:04;;;;;;;51.00;28.10;;;;;;;-2.30;98.42;100684.69;5029752;28;20224;-58
2021/12/23 06:51:31;;;;;;;53.17;28.80;;;;;;;-2.14;97.68;100690.41;5030010;28;20240;-59
2021/12/23 06:54:00;;;;;;;52.40;27.27;;;;;;;-2.26;98.03;100690.78;5029462;28;20818;-59
2021/12/23 06:56:28;;;;;;;43.70;24.40;;;;;;;-2.43;99.27;100679.03;5031896;28;20232;-57
2021/12/23 06:58:56;;;;;;;44.60;23.73;;;;;;;-2.36;98.50;100686.09;5028917;28;20217;-56
2021/12/23 07:01:23;;;;;;;41.70;23.20;;;;;;;-2.32;98.01;100682.88;5029433;28;20324;-55
2021/12/23 07:04:12;;;;;;;41.97;23.20;;;;;;;-2.31;97.22;100679.53;5028606;28;20319;-57
2021/12/23 07:06:46;;;;;;;48.83;24.33;;;;;;;-2.26;97.73;100678.06;5029085;28;20221;-56
2021/12/23 07:09:14;;;;;;;41.00;22.63;;;;;;;-2.21;98.07;100677.44;5028501;28;20220;-57
2021/12/23 07:11:42;;;;;;;42.33;22.83;;;;;;;-2.19;97.89;100677.50;5029303;28;20225;-57
2021/12/23 07:14:09;;;;;;;46.33;22.57;;;;;;;-2.16;98.04;100679.31;5029336;28;20308;-59
2021/12/23 07:16:38;;;;;;;41.60;22.53;;;;;;;-2.12;97.55;100674.38;5029361;28;20307;-59
2021/12/23 07:19:05;;;;;;;37.20;21.40;;;;;;;-2.14;97.01;100682.78;5029154;28;20220;-59
2021/12/23 07:21:32;;;;;;;39.57;20.33;;;;;;;-1.92;96.91;100683.69;5029449;28;20312;-59
2021/12/23 07:24:00;;;;;;;34.63;19.43;;;;;;;-2.00;95.90;100682.50;5028707;28;20233;-58
2021/12/23 07:26:27;;;;;;;40.03;19.67;;;;;;;-1.87;95.06;100664.38;5039678;28;20240;-57
2021/12/23 07:28:55;;;;;;;34.93;18.73;;;;;;;-1.70;93.77;100682.88;5049135;28;20320;-59
2021/12/23 07:31:22;;;;;;;25.43;15.47;;;;;;;-1.57;91.36;100694.38;5049504;28;20726;-60
2021/12/23 07:33:49;;;;;;;25.97;14.83;;;;;;;-1.52;88.53;100696.31;5049354;28;20751;-60
2021/12/23 07:36:18;;;;;;;28.73;15.33;;;;;;;-1.46;88.50;100699.06;5049113;28;20311;-58
2021/12/23 07:38:45;;;;;;;28.03;14.93;;;;;;;-1.33;86.93;100702.06;5048823;28;20228;-58
2021/12/23 07:41:12;;;;;;;26.23;14.10;;;;;;;-1.26;86.31;100701.53;5049145;28;20738;-57
2021/12/23 07:43:56;;;;;;;30.30;14.90;;;;;;;-1.35;85.02;100699.47;5049274;28;20252;-59
2021/12/23 07:46:26;;;;;;;31.10;14.80;;;;;;;-1.18;84.61;100705.22;5050748;28;20712;-56
2021/12/23 07:48:53;;;;;;;37.40;15.57;;;;;;;-1.15;84.70;100700.25;5052632;28;20315;-57
2021/12/23 07:51:20;;;;;;;35.47;16.77;;;;;;;-1.04;84.28;100703.19;5053056;28;20307;-57
2021/12/23 07:53:47;;;;;;;37.17;20.33;;;;;;;-1.17;85.37;100700.19;5052298;28;20230;-57
2021/12/23 07:56:14;;;;;;;37.07;21.07;;;;;;;-1.13;84.73;100693.53;5044477;28;20225;-57
2021/12/23 07:58:41;;;;;;;31.33;18.53;;;;;;;-0.94;83.22;100701.00;5033244;28;20239;-57
2021/12/23 08:01:08;;;;;;;35.77;18.57;;;;;;;-0.86;82.91;100698.72;5032946;28;20604;-57
2021/12/23 08:03:36;;;;;;;38.30;18.30;;;;;;;-0.95;82.14;100678.88;5032869;28;20315;-58
2021/12/23 08:06:03;;;;;;;34.13;18.27;;;;;;;-0.83;82.60;100684.44;5033055;28;20235;-57
2021/12/23 08:08:30;;;;;;;32.33;16.90;;;;;;;-0.74;82.43;100692.41;5032387;28;20732;-57
2021/12/23 08:10:57;;;;;;;33.20;18.73;;;;;;;-0.60;81.33;100686.91;5032799;28;20225;-57
2021/12/23 08:13:24;;;;;;;37.80;16.60;;;;;;;-0.55;80.01;100662.41;5032762;28;20764;-57
2021/12/23 08:15:51;;;;;;;26.50;14.77;;;;;;;-0.42;79.86;100678.19;5032577;28;20214;-57
2021/12/23 08:18:18;;;;;;;30.10;16.57;;;;;;;-0.64;80.42;100679.97;5032905;28;20750;-57
2021/12/23 08:20:47;;;;;;;31.47;16.87;;;;;;;-0.52;79.69;100685.47;5032801;28;20234;-57
2021/12/23 08:23:13;;;;;;;27.87;15.70;;;;;;;-0.41;80.70;100681.63;5032231;28;20606;-57
2021/12/23 08:25:40;;;;;;;26.87;13.97;;;;;;;-0.69;79.69;100681.50;5036253;28;20221;-57
2021/12/23 08:28:09;;;;;;;21.43;13.10;;;;;;;-0.60;79.23;100672.47;5052148;28;20230;-57
2021/12/23 08:30:39;;;;;;;23.67;13.90;;;;;;;-0.35;78.91;100678.41;5052278;28;20226;-56
2021/12/23 08:33:06;;;;;;;23.33;13.63;;;;;;;-0.16;78.61;100678.19;5052195;28;20344;-58
2021/12/23 08:35:33;;;;;;;26.07;13.50;;;;;;;-0.25;77.75;100639.63;5052291;28;20308;-59
2021/12/23 08:38:02;;;;;;;24.40;13.27;;;;;;;-0.14;76.64;100684.22;5051498;28;20230;-58
2021/12/23 08:40:30;;;;;;;28.17;15.37;;;;;;;0.03;77.49;100672.88;5052259;28;20331;-61
2021/12/23 08:42:58;;;;;;;30.53;16.40;;;;;;;-0.03;77.73;100652.28;5051758;28;20641;-58
2021/12/23 08:45:26;;;;;;;28.43;16.47;;;;;;;0.08;77.17;100668.78;5052330;28;20327;-59
2021/12/23 08:47:55;;;;;;;29.33;16.33;;;;;;;0.04;77.47;100653.31;5051846;28;20225;-59
2021/12/23 08:50:22;;;;;;;27.63;16.00;;;;;;;0.12;77.69;100672.28;5052336;28;20228;-59
2021/12/23 08:52:49;;;;;;;30.07;16.80;;;;;;;0.11;77.86;100655.25;5051442;28;20629;-61
2021/12/23 08:55:20;;;;;;;27.57;16.97;;;;;;;0.12;77.79;100669.72;5051449;28;20737;-61
2021/12/23 08:57:47;;;;;;;36.03;17.53;;;;;;;0.25;78.41;100670.16;5031227;28;20216;-56
2021/12/23 09:00:17;;;;;;;33.80;16.37;;;;;;;0.20;79.54;100663.19;5031899;28;20318;-56
2021/12/23 09:02:46;;;;;;;27.33;15.97;;;;;;;0.33;78.09;100650.88;5031736;28;20253;-58
2021/12/23 09:05:13;;;;;;;27.80;14.67;;;;;;;0.19;77.93;100653.81;5031934;28;20233;-59
2021/12/23 09:07:40;;;;;;;30.20;14.60;;;;;;;0.24;78.01;100658.22;5031241;28;20225;-58
2021/12/23 09:10:09;;;;;;;31.40;13.87;;;;;;;0.32;78.40;100635.50;5031356;28;20226;-59
2021/12/23 09:12:37;;;;;;;22.77;13.07;;;;;;;0.39;80.19;100639.94;5031923;28;20641;-59
2021/12/23 09:15:05;;;;;;;21.73;12.80;;;;;;;0.26;79.76;100640.41;5031545;28;20224;-58
2021/12/23 09:17:33;;;;;;;23.73;14.47;;;;;;;0.26;80.43;100635.28;5031661;28;20234;-59
2021/12/23 09:20:00;;;;;;;32.07;15.40;;;;;;;0.34;80.10;100616.81;5031362;28;20214;-59
2021/12/23 09:22:26;;;;;;;22.43;14.17;;;;;;;0.49;79.93;100624.06;5031022;28;20309;-59
2021/12/23 09:24:57;;;;;;;24.97;14.70;;;;;;;0.48;80.58;100611.25;5031036;28;20237;-59
2021/12/23 09:27:32;;;;;;;20.20;13.27;;;;;;;0.35;80.14;100590.47;5049418;28;20228;-59
2021/12/23 09:32:53;;;;;;;19.30;11.67;;;;;;;0.66;79.38;100599.03;5001251;28;20600;-61
2021/12/23 09:35:24;;;;;;;29.93;12.10;;;;;;;0.77;79.01;100594.22;5036086;28;20689;-59
2021/12/23 09:37:52;;;;;;;17.70;11.73;;;;;;;0.54;78.99;100558.66;5031867;28;20646;-58
2021/12/23 09:40:20;;;;;;;17.37;11.07;;;;;;;0.76;77.97;100566.94;5031314;28;20193;-59
2021/12/23 09:42:48;;;;;;;16.40;10.83;;;;;;;0.94;77.31;100592.97;5031505;28;20198;-59
2021/12/23 09:45:19;;;;;;;20.23;11.80;;;;;;;0.81;76.37;100566.22;5031164;28;20236;-59
2021/12/23 09:47:48;;;;;;;20.17;10.57;;;;;;;1.09;75.07;100589.16;5031218;28;20194;-60
2021/12/23 09:50:18;;;;;;;15.70;10.43;;;;;;;1.00;75.22;100577.81;5031294;28;20303;-59
2021/12/23 09:52:48;;;;;;;20.67;10.53;;;;;;;1.03;76.35;100582.97;5031269;28;20603;-58
2021/12/23 09:55:16;;;;;;;17.97;10.23;;;;;;;0.92;75.64;100574.16;5031058;28;20189;-59
2021/12/23 09:57:46;;;;;;;18.47;11.97;;;;;;;0.94;74.84;100567.41;5031066;28;20200;-59
2021/12/23 10:00:14;;;;;;;28.37;12.97;;;;;;;1.15;75.83;100567.09;5031032;28;20668;-59
2021/12/23 10:02:43;;;;;;;39.63;13.43;;;;;;;1.17;75.89;100562.91;5030991;28;20317;-59
2021/12/23 10:05:14;;;;;;;21.27;11.47;;;;;;;1.26;74.82;100556.31;5030868;28;20221;-59
2021/12/23 10:07:44;;;;;;;15.33;10.40;;;;;;;1.25;74.84;100553.72;5031083;28;20573;-57
2021/12/23 10:10:15;;;;;;;18.10;11.77;;;;;;;1.29;76.11;100553.84;5014022;28;20253;-57
2021/12/23 10:32:51;;;;;;;17.43;10.50;;;;;;;1.59;73.98;100510.22;5010618;28;20240;-57
2021/12/23 10:38:08;;;;;;;20.73;11.80;;;;;;;1.81;72.64;100501.31;5028588;28;20208;-59
2021/12/23 10:40:40;;;;;;;23.03;12.17;;;;;;;1.90;72.54;100501.56;5030128;28;20611;-61
2021/12/23 10:43:08;;;;;;;19.13;11.03;;;;;;;1.77;72.60;100494.44;5029735;28;20229;-55
2021/12/23 10:45:41;;;;;;;16.93;10.30;;;;;;;1.47;72.33;100453.66;5030135;28;20619;-59
2021/12/23 10:48:12;;;;;;;18.87;12.10;;;;;;;1.72;73.16;100496.00;5029832;28;20288;-57
2021/12/23 10:50:44;;;;;;;19.93;11.93;;;;;;;1.76;72.79;100495.25;5030282;28;20582;-60
2021/12/23 10:53:24;;;;;;;19.63;12.10;;;;;;;1.88;72.18;100490.41;5029959;28;20212;-60
2021/12/23 10:59:02;;;;;;;21.57;12.17;;;;;;;1.93;71.69;100480.25;5030085;28;20579;-62
2021/12/23 11:01:29;;;;;;;20.97;13.13;;;;;;;1.98;71.76;100486.34;5029918;28;20201;-61
2021/12/23 11:04:02;;;;;;;24.20;13.50;;;;;;;2.03;71.75;100483.03;5029899;28;20611;-62
2021/12/23 11:06:35;;;;;;;18.37;12.57;;;;;;;1.97;71.20;100482.94;5030024;28;20224;-62
2021/12/23 11:09:17;;;;;;;22.40;12.47;;;;;;;2.02;70.51;100476.22;5029639;28;20197;-61
2021/12/23 11:37:12;;;;;;;25.27;15.77;;;;;;;2.28;68.24;100432.31;5033395;28;20219;-58
2021/12/23 11:40:06;;;;;;;23.07;14.33;;;;;;;2.27;67.08;100430.59;5033591;28;20201;-59
2021/12/23 11:42:40;;;;;;;25.27;14.37;;;;;;;2.34;67.98;100423.06;5033732;28;20219;-59
2021/12/23 11:45:08;;;;;;;29.17;16.47;;;;;;;2.22;68.15;100430.50;5033188;28;20220;-57
2021/12/23 11:47:38;;;;;;;35.23;17.33;;;;;;;2.12;69.57;100406.44;5033394;28;20612;-60
2021/12/23 11:50:06;;;;;;;30.13;17.60;;;;;;;2.25;68.87;100422.91;5032881;28;20221;-59
2021/12/23 11:52:34;;;;;;;28.03;16.43;;;;;;;2.26;69.35;100426.31;5024463;28;20202;-59
2021/12/23 11:55:06;;;;;;;34.67;18.60;;;;;;;2.34;69.49;100422.19;5013186;28;20202;-59
2021/12/23 11:57:38;;;;;;;33.43;18.93;;;;;;;2.31;69.55;100419.56;5013417;28;20206;-59
2021/12/23 12:00:15;;;;;;;41.33;21.23;;;;;;;2.34;69.99;100419.63;5012937;28;20202;-58
2021/12/23 12:02:42;;;;;;;34.77;20.23;;;;;;;2.27;69.78;100399.84;5012909;28;20226;-58
2021/12/23 12:05:17;;;;;;;31.77;18.27;;;;;;;2.32;69.29;100418.75;5012914;28;20612;-59
2021/12/23 12:07:46;;;;;;;29.97;18.60;;;;;;;2.09;69.31;100383.31;5013134;28;20202;-59
2021/12/23 12:10:22;;;;;;;53.87;18.23;;;;;;;2.41;69.36;100421.47;5013012;28;20675;-58